sensor_id;sensor_type;location;lat;lon;timestamp;pressure;altitude;pressure_sealevel;temperature;humidity
11605;BME280;5858;43.076;25.626;2023-02-03T00:02:09;99485.22;;;2.70;82.74
11605;BME280;5858;43.076;25.626;2023-02-03T00:04:36;99493.94;;;2.61;82.74
11605;BME280;5858;43.076;25.626;2023-02-03T00:07:04;99440.00;;;2.22;82.69
11605;BME280;5858;43.076;25.626;2023-02-03T00:09:31;99411.97;;;2.10;82.46
11605;BME280;5858;43.076;25.626;2023-02-03T00:11:58;99505.34;;;2.62;82.86
11605;BME280;5858;43.076;25.626;2023-02-03T00:14:25;99486.72;;;2.42;82.75
11605;BME280;5858;43.076;25.626;2023-02-03T00:16:52;99461.44;;;2.29;82.67
11605;BME280;5858;43.076;25.626;2023-02-03T00:19:21;99389.41;;;1.85;83.10
11605;BME280;5858;43.076;25.626;2023-02-03T00:21:50;99511.84;;;2.58;83.31
11605;BME280;5858;43.076;25.626;2023-02-03T00:24:17;99336.59;;;1.43;82.90
11605;BME280;5858;43.076;25.626;2023-02-03T00:26:45;99427.94;;;2.08;83.49
11605;BME280;5858;43.076;25.626;2023-02-03T00:29:12;99505.47;;;2.60;83.06
11605;BME280;5858;43.076;25.626;2023-02-03T00:31:39;99472.88;;;2.50;83.23
11605;BME280;5858;43.076;25.626;2023-02-03T00:34:07;99398.78;;;2.10;83.27
11605;BME280;5858;43.076;25.626;2023-02-03T00:36:35;99363.59;;;1.88;83.05
11605;BME280;5858;43.076;25.626;2023-02-03T00:39:02;99398.25;;;1.95;83.25
11605;BME280;5858;43.076;25.626;2023-02-03T00:41:30;99499.78;;;2.65;82.73
11605;BME280;5858;43.076;25.626;2023-02-03T00:44:00;99436.25;;;2.25;83.25
11605;BME280;5858;43.076;25.626;2023-02-03T00:46:27;99500.25;;;2.70;83.24
11605;BME280;5858;43.076;25.626;2023-02-03T00:48:54;99493.22;;;2.80;82.97
11605;BME280;5858;43.076;25.626;2023-02-03T00:51:21;99466.41;;;2.64;82.22
11605;BME280;5858;43.076;25.626;2023-02-03T00:53:49;99484.00;;;2.95;81.57
11605;BME280;5858;43.076;25.626;2023-02-03T00:56:16;99447.97;;;2.73;81.91
11605;BME280;5858;43.076;25.626;2023-02-03T00:58:44;99390.72;;;2.32;81.38
11605;BME280;5858;43.076;25.626;2023-02-03T01:01:11;99505.47;;;3.02;81.97
11605;BME280;5858;43.076;25.626;2023-02-03T01:03:38;99496.44;;;3.04;81.67
11605;BME280;5858;43.076;25.626;2023-02-03T01:06:11;99464.16;;;2.80;82.01
11605;BME280;5858;43.076;25.626;2023-02-03T01:08:38;99514.50;;;2.99;82.29
11605;BME280;5858;43.076;25.626;2023-02-03T01:11:10;99420.34;;;2.36;81.63
11605;BME280;5858;43.076;25.626;2023-02-03T01:13:38;99507.44;;;3.09;81.63
11605;BME280;5858;43.076;25.626;2023-02-03T01:16:07;99446.31;;;2.72;81.43
11605;BME280;5858;43.076;25.626;2023-02-03T01:18:34;99480.00;;;3.01;81.57
11605;BME280;5858;43.076;25.626;2023-02-03T01:21:06;99432.09;;;2.43;81.30
11605;BME280;5858;43.076;25.626;2023-02-03T01:23:34;99524.59;;;3.15;81.22
11605;BME280;5858;43.076;25.626;2023-02-03T01:26:03;99529.75;;;3.16;81.04
11605;BME280;5858;43.076;25.626;2023-02-03T01:28:32;99394.16;;;2.44;81.21
11605;BME280;5858;43.076;25.626;2023-02-03T01:31:09;99484.63;;;3.08;81.60
11605;BME280;5858;43.076;25.626;2023-02-03T01:33:36;99401.88;;;2.57;80.26
11605;BME280;5858;43.076;25.626;2023-02-03T01:36:06;99495.06;;;3.10;81.03
11605;BME280;5858;43.076;25.626;2023-02-03T01:38:34;99481.19;;;3.17;80.77
11605;BME280;5858;43.076;25.626;2023-02-03T01:41:01;99486.56;;;3.06;80.76
11605;BME280;5858;43.076;25.626;2023-02-03T01:43:32;99505.81;;;3.18;80.47
11605;BME280;5858;43.076;25.626;2023-02-03T01:46:02;99547.84;;;3.42;80.64
11605;BME280;5858;43.076;25.626;2023-02-03T01:48:31;99444.31;;;2.86;80.51
11605;BME280;5858;43.076;25.626;2023-02-03T01:51:01;99534.78;;;3.50;80.23
11605;BME280;5858;43.076;25.626;2023-02-03T01:53:30;99474.06;;;3.08;80.65
11605;BME280;5858;43.076;25.626;2023-02-03T01:55:58;99531.28;;;3.40;80.40
11605;BME280;5858;43.076;25.626;2023-02-03T01:58:28;99364.41;;;2.42;80.33
11605;BME280;5858;43.076;25.626;2023-02-03T02:00:59;99510.38;;;3.37;80.10
11605;BME280;5858;43.076;25.626;2023-02-03T02:03:30;99492.25;;;3.32;80.49
11605;BME280;5858;43.076;25.626;2023-02-03T02:06:03;99443.84;;;3.01;81.11
11605;BME280;5858;43.076;25.626;2023-02-03T02:08:30;99526.94;;;3.39;81.13
11605;BME280;5858;43.076;25.626;2023-02-03T02:10:58;99518.44;;;3.35;81.43
11605;BME280;5858;43.076;25.626;2023-02-03T02:13:27;99448.03;;;2.83;81.21
11605;BME280;5858;43.076;25.626;2023-02-03T02:16:02;99525.53;;;3.35;81.19
11605;BME280;5858;43.076;25.626;2023-02-03T02:18:40;99473.59;;;3.03;81.27
11605;BME280;5858;43.076;25.626;2023-02-03T02:21:28;99529.31;;;3.42;81.05
11605;BME280;5858;43.076;25.626;2023-02-03T02:27:08;99494.66;;;3.14;80.83
11605;BME280;5858;43.076;25.626;2023-02-03T02:33:00;99490.19;;;3.05;81.76
11605;BME280;5858;43.076;25.626;2023-02-03T02:35:43;99466.28;;;2.86;82.39
11605;BME280;5858;43.076;25.626;2023-02-03T02:38:19;99469.66;;;2.88;82.21
11605;BME280;5858;43.076;25.626;2023-02-03T02:40:53;99459.00;;;2.78;82.35
11605;BME280;5858;43.076;25.626;2023-02-03T02:43:26;99521.94;;;3.15;82.26
11605;BME280;5858;43.076;25.626;2023-02-03T02:46:00;99505.31;;;3.03;82.18
11605;BME280;5858;43.076;25.626;2023-02-03T02:48:32;99470.78;;;2.74;82.63
11605;BME280;5858;43.076;25.626;2023-02-03T02:51:04;99486.91;;;2.92;82.18
11605;BME280;5858;43.076;25.626;2023-02-03T02:53:37;99496.78;;;2.90;82.40
11605;BME280;5858;43.076;25.626;2023-02-03T02:56:08;99527.22;;;3.15;82.51
11605;BME280;5858;43.076;25.626;2023-02-03T02:58:38;99528.59;;;3.09;82.64
11605;BME280;5858;43.076;25.626;2023-02-03T03:01:07;99544.31;;;3.11;82.14
11605;BME280;5858;43.076;25.626;2023-02-03T03:03:36;99504.34;;;2.83;83.03
11605;BME280;5858;43.076;25.626;2023-02-03T03:06:12;99544.59;;;3.08;82.95
11605;BME280;5858;43.076;25.626;2023-02-03T03:08:48;99409.00;;;2.24;82.74
11605;BME280;5858;43.076;25.626;2023-02-03T03:11:18;99485.69;;;2.75;82.40
11605;BME280;5858;43.076;25.626;2023-02-03T03:13:48;99552.06;;;3.03;82.86
11605;BME280;5858;43.076;25.626;2023-02-03T03:16:19;99548.47;;;3.04;82.83
11605;BME280;5858;43.076;25.626;2023-02-03T03:18:50;99457.22;;;2.37;83.18
11605;BME280;5858;43.076;25.626;2023-02-03T03:21:23;99518.34;;;2.74;83.03
11605;BME280;5858;43.076;25.626;2023-02-03T03:23:53;99455.91;;;2.32;83.07
11605;BME280;5858;43.076;25.626;2023-02-03T03:26:27;99485.81;;;2.53;82.87
11605;BME280;5858;43.076;25.626;2023-02-03T03:29:09;99495.41;;;2.54;83.36
11605;BME280;5858;43.076;25.626;2023-02-03T03:31:39;99589.66;;;3.06;82.85
11605;BME280;5858;43.076;25.626;2023-02-03T03:34:08;99516.09;;;2.70;83.75
11605;BME280;5858;43.076;25.626;2023-02-03T03:36:40;99499.84;;;2.53;83.72
11605;BME280;5858;43.076;25.626;2023-02-03T03:39:13;99553.13;;;2.79;83.70
11605;BME280;5858;43.076;25.626;2023-02-03T03:41:49;99467.03;;;2.35;83.58
11605;BME280;5858;43.076;25.626;2023-02-03T03:44:18;99596.09;;;3.13;83.80
11605;BME280;5858;43.076;25.626;2023-02-03T03:46:50;99539.63;;;2.94;83.10
11605;BME280;5858;43.076;25.626;2023-02-03T03:49:21;99557.41;;;3.12;83.44
11605;BME280;5858;43.076;25.626;2023-02-03T03:51:53;99595.41;;;3.32;83.47
11605;BME280;5858;43.076;25.626;2023-02-03T03:54:22;99573.63;;;3.29;83.43
11605;BME280;5858;43.076;25.626;2023-02-03T03:56:55;99587.69;;;3.29;83.97
11605;BME280;5858;43.076;25.626;2023-02-03T03:59:26;99514.09;;;2.83;84.42
11605;BME280;5858;43.076;25.626;2023-02-03T04:01:56;99482.63;;;2.80;83.80
11605;BME280;5858;43.076;25.626;2023-02-03T04:04:31;99565.13;;;3.25;83.60
11605;BME280;5858;43.076;25.626;2023-02-03T04:06:59;99599.06;;;3.41;83.87
11605;BME280;5858;43.076;25.626;2023-02-03T04:09:26;99571.59;;;3.11;84.52
11605;BME280;5858;43.076;25.626;2023-02-03T04:11:53;99430.13;;;2.24;84.44
11605;BME280;5858;43.076;25.626;2023-02-03T04:14:27;99605.13;;;3.32;85.00
11605;BME280;5858;43.076;25.626;2023-02-03T04:16:54;99603.44;;;3.31;85.13
11605;BME280;5858;43.076;25.626;2023-02-03T04:19:22;99605.06;;;3.43;84.64
11605;BME280;5858;43.076;25.626;2023-02-03T04:21:50;99578.03;;;3.19;85.05
11605;BME280;5858;43.076;25.626;2023-02-03T04:24:18;99523.69;;;2.63;84.96
11605;BME280;5858;43.076;25.626;2023-02-03T04:26:45;99569.66;;;3.13;84.77
11605;BME280;5858;43.076;25.626;2023-02-03T04:29:12;99482.66;;;2.38;85.26
11605;BME280;5858;43.076;25.626;2023-02-03T04:31:39;99526.91;;;2.67;84.68
11605;BME280;5858;43.076;25.626;2023-02-03T04:34:06;99631.38;;;3.44;84.79
11605;BME280;5858;43.076;25.626;2023-02-03T04:36:33;99620.16;;;3.31;84.99
11605;BME280;5858;43.076;25.626;2023-02-03T04:39:02;99647.25;;;3.44;85.25
11605;BME280;5858;43.076;25.626;2023-02-03T04:41:29;99648.66;;;3.48;85.39
11605;BME280;5858;43.076;25.626;2023-02-03T04:43:56;99649.56;;;3.59;84.50
11605;BME280;5858;43.076;25.626;2023-02-03T04:46:23;99611.28;;;3.32;84.04
11605;BME280;5858;43.076;25.626;2023-02-03T04:48:50;99533.41;;;2.83;84.92
11605;BME280;5858;43.076;25.626;2023-02-03T04:51:17;99614.75;;;3.33;84.70
11605;BME280;5858;43.076;25.626;2023-02-03T04:53:44;99471.34;;;2.36;84.23
11605;BME280;5858;43.076;25.626;2023-02-03T04:56:13;99487.19;;;2.36;84.59
11605;BME280;5858;43.076;25.626;2023-02-03T04:58:41;99662.78;;;3.59;84.78
11605;BME280;5858;43.076;25.626;2023-02-03T05:01:08;99673.69;;;3.65;84.49
11605;BME280;5858;43.076;25.626;2023-02-03T05:03:35;99664.06;;;3.64;84.67
11605;BME280;5858;43.076;25.626;2023-02-03T05:06:03;99593.91;;;3.19;84.80
11605;BME280;5858;43.076;25.626;2023-02-03T05:08:30;99667.16;;;3.69;84.67
11605;BME280;5858;43.076;25.626;2023-02-03T05:10:58;99666.41;;;3.58;85.15
11605;BME280;5858;43.076;25.626;2023-02-03T05:13:26;99618.81;;;3.37;85.38
11605;BME280;5858;43.076;25.626;2023-02-03T05:15:53;99665.88;;;3.64;84.82
11605;BME280;5858;43.076;25.626;2023-02-03T05:18:21;99631.06;;;3.38;85.13
11605;BME280;5858;43.076;25.626;2023-02-03T05:20:48;99608.28;;;3.26;85.15
11605;BME280;5858;43.076;25.626;2023-02-03T05:23:15;99581.34;;;3.11;85.43
11605;BME280;5858;43.076;25.626;2023-02-03T05:25:43;99541.13;;;2.87;85.92
11605;BME280;5858;43.076;25.626;2023-02-03T05:28:10;99593.72;;;3.10;86.10
11605;BME280;5858;43.076;25.626;2023-02-03T05:30:39;99647.56;;;3.51;86.17
11605;BME280;5858;43.076;25.626;2023-02-03T05:33:06;99676.72;;;3.61;86.62
11605;BME280;5858;43.076;25.626;2023-02-03T05:35:33;99667.25;;;3.58;85.91
11605;BME280;5858;43.076;25.626;2023-02-03T05:38:00;99679.50;;;3.59;86.16
11605;BME280;5858;43.076;25.626;2023-02-03T05:40:28;99686.06;;;3.65;85.44
11605;BME280;5858;43.076;25.626;2023-02-03T05:43:13;99703.50;;;3.67;85.67
11605;BME280;5858;43.076;25.626;2023-02-03T05:45:42;99617.63;;;3.09;85.14
11605;BME280;5858;43.076;25.626;2023-02-03T05:48:12;99605.00;;;3.12;85.73
11605;BME280;5858;43.076;25.626;2023-02-03T05:50:40;99590.66;;;2.73;85.98
11605;BME280;5858;43.076;25.626;2023-02-03T05:53:08;99548.81;;;2.58;86.11
11605;BME280;5858;43.076;25.626;2023-02-03T05:55:36;99671.31;;;3.41;85.65
11605;BME280;5858;43.076;25.626;2023-02-03T05:58:04;99587.84;;;2.86;85.41
11605;BME280;5858;43.076;25.626;2023-02-03T06:00:31;99602.53;;;3.00;85.45
11605;BME280;5858;43.076;25.626;2023-02-03T06:03:00;99643.38;;;3.28;85.31
11605;BME280;5858;43.076;25.626;2023-02-03T06:05:29;99725.13;;;3.72;85.13
11605;BME280;5858;43.076;25.626;2023-02-03T06:07:56;99578.41;;;2.72;85.80
11605;BME280;5858;43.076;25.626;2023-02-03T06:10:24;99667.03;;;3.29;85.15
11605;BME280;5858;43.076;25.626;2023-02-03T06:12:51;99688.28;;;3.39;85.71
11605;BME280;5858;43.076;25.626;2023-02-03T06:15:18;99742.66;;;3.73;85.76
11605;BME280;5858;43.076;25.626;2023-02-03T06:17:46;99734.59;;;3.75;85.78
11605;BME280;5858;43.076;25.626;2023-02-03T06:20:18;99705.50;;;3.54;85.45
11605;BME280;5858;43.076;25.626;2023-02-03T06:22:47;99737.50;;;3.72;85.32
11605;BME280;5858;43.076;25.626;2023-02-03T06:25:15;99762.50;;;3.79;85.62
11605;BME280;5858;43.076;25.626;2023-02-03T06:27:42;99749.50;;;3.76;85.50
11605;BME280;5858;43.076;25.626;2023-02-03T06:30:17;99769.97;;;3.74;86.10
11605;BME280;5858;43.076;25.626;2023-02-03T06:32:47;99689.38;;;3.36;85.41
11605;BME280;5858;43.076;25.626;2023-02-03T06:35:15;99617.50;;;3.10;84.83
11605;BME280;5858;43.076;25.626;2023-02-03T06:37:46;99755.00;;;3.63;85.14
11605;BME280;5858;43.076;25.626;2023-02-03T06:40:26;99646.06;;;3.16;84.92
11605;BME280;5858;43.076;25.626;2023-02-03T06:43:15;99569.69;;;2.93;84.58
11605;BME280;5858;43.076;25.626;2023-02-03T06:45:58;99631.66;;;3.41;84.63
11605;BME280;5858;43.076;25.626;2023-02-03T06:48:25;99655.44;;;3.62;84.31
11605;BME280;5858;43.076;25.626;2023-02-03T06:51:08;99593.31;;;3.15;83.71
11605;BME280;5858;43.076;25.626;2023-02-03T06:53:36;99737.31;;;4.36;83.18
11605;BME280;5858;43.076;25.626;2023-02-03T06:56:32;99630.06;;;3.60;83.48
11605;BME280;5858;43.076;25.626;2023-02-03T07:02:55;99722.59;;;4.22;83.34
11605;BME280;5858;43.076;25.626;2023-02-03T07:13:04;99674.06;;;3.82;83.22
11605;BME280;5858;43.076;25.626;2023-02-03T07:15:58;99760.91;;;4.18;83.38
11605;BME280;5858;43.076;25.626;2023-02-03T07:18:40;99779.53;;;4.07;84.09
11605;BME280;5858;43.076;25.626;2023-02-03T07:21:21;99774.94;;;4.09;84.15
11605;BME280;5858;43.076;25.626;2023-02-03T07:23:50;99704.66;;;3.74;83.52
11605;BME280;5858;43.076;25.626;2023-02-03T07:26:18;99739.38;;;4.02;83.69
11605;BME280;5858;43.076;25.626;2023-02-03T07:28:51;99682.91;;;3.71;83.07
11605;BME280;5858;43.076;25.626;2023-02-03T07:31:19;99791.19;;;4.46;82.11
11605;BME280;5858;43.076;25.626;2023-02-03T07:33:46;99684.72;;;3.70;82.55
11605;BME280;5858;43.076;25.626;2023-02-03T07:36:17;99762.25;;;4.33;81.33
11605;BME280;5858;43.076;25.626;2023-02-03T07:38:50;99683.03;;;3.90;81.58
11605;BME280;5858;43.076;25.626;2023-02-03T07:41:25;99795.56;;;4.66;81.05
11605;BME280;5858;43.076;25.626;2023-02-03T07:44:02;99739.44;;;4.42;80.06
11605;BME280;5858;43.076;25.626;2023-02-03T07:46:32;99618.44;;;3.72;79.87
11605;BME280;5858;43.076;25.626;2023-02-03T07:49:29;99730.53;;;4.22;79.38
11605;BME280;5858;43.076;25.626;2023-02-03T07:52:10;99705.03;;;4.21;78.96
11605;BME280;5858;43.076;25.626;2023-02-03T07:54:38;99679.53;;;4.20;78.84
11605;BME280;5858;43.076;25.626;2023-02-03T07:57:05;99790.53;;;4.94;77.79
11605;BME280;5858;43.076;25.626;2023-02-03T07:59:34;99647.53;;;4.02;77.60
11605;BME280;5858;43.076;25.626;2023-02-03T08:02:01;99857.84;;;5.12;78.19
11605;BME280;5858;43.076;25.626;2023-02-03T08:04:29;99800.84;;;4.97;77.96
11605;BME280;5858;43.076;25.626;2023-02-03T08:07:02;99744.09;;;4.59;77.49
11605;BME280;5858;43.076;25.626;2023-02-03T08:09:33;99760.56;;;4.63;77.04
11605;BME280;5858;43.076;25.626;2023-02-03T08:12:04;99826.63;;;5.25;77.05
11605;BME280;5858;43.076;25.626;2023-02-03T08:14:40;99790.41;;;5.05;76.18
11605;BME280;5858;43.076;25.626;2023-02-03T08:20:11;99850.09;;;5.30;76.25
11605;BME280;5858;43.076;25.626;2023-02-03T08:22:41;99777.97;;;4.96;75.73
11605;BME280;5858;43.076;25.626;2023-02-03T08:25:10;99759.25;;;4.97;75.83
11605;BME280;5858;43.076;25.626;2023-02-03T08:27:39;99841.31;;;5.39;75.70
11605;BME280;5858;43.076;25.626;2023-02-03T08:30:45;99803.19;;;5.40;76.11
11605;BME280;5858;43.076;25.626;2023-02-03T08:33:12;99814.34;;;5.53;75.56
11605;BME280;5858;43.076;25.626;2023-02-03T08:35:58;99832.41;;;5.79;74.97
11605;BME280;5858;43.076;25.626;2023-02-03T08:38:26;99829.88;;;5.87;75.02
11605;BME280;5858;43.076;25.626;2023-02-03T08:40:53;99775.09;;;5.66;73.69
11605;BME280;5858;43.076;25.626;2023-02-03T08:43:58;99739.88;;;5.55;73.43
11605;BME280;5858;43.076;25.626;2023-02-03T08:46:33;99831.84;;;6.04;73.19
11605;BME280;5858;43.076;25.626;2023-02-03T08:52:36;99838.69;;;6.16;73.31
11605;BME280;5858;43.076;25.626;2023-02-03T08:58:46;99844.00;;;6.07;73.33
11605;BME280;5858;43.076;25.626;2023-02-03T09:01:16;99839.25;;;6.10;72.65
11605;BME280;5858;43.076;25.626;2023-02-03T09:08:34;99889.53;;;6.50;72.71
11605;BME280;5858;43.076;25.626;2023-02-03T09:15:32;99863.06;;;6.58;70.14
11605;BME280;5858;43.076;25.626;2023-02-03T09:18:18;99795.69;;;6.40;69.82
11605;BME280;5858;43.076;25.626;2023-02-03T09:21:11;99815.66;;;6.54;69.82
11605;BME280;5858;43.076;25.626;2023-02-03T09:24:29;99878.91;;;6.97;69.88
11605;BME280;5858;43.076;25.626;2023-02-03T09:27:13;99728.34;;;6.22;69.74
11605;BME280;5858;43.076;25.626;2023-02-03T09:30:00;99724.97;;;6.29;69.54
11605;BME280;5858;43.076;25.626;2023-02-03T09:32:36;99798.75;;;6.82;68.53
11605;BME280;5858;43.076;25.626;2023-02-03T09:38:36;99795.91;;;6.93;67.57
11605;BME280;5858;43.076;25.626;2023-02-03T09:41:16;99710.34;;;6.43;67.15
11605;BME280;5858;43.076;25.626;2023-02-03T09:44:17;99819.97;;;6.92;66.65
11605;BME280;5858;43.076;25.626;2023-02-03T09:47:02;99903.03;;;7.23;66.80
11605;BME280;5858;43.076;25.626;2023-02-03T09:49:48;99739.56;;;6.06;67.35
11605;BME280;5858;43.076;25.626;2023-02-03T09:52:49;99889.88;;;6.84;67.99
11605;BME280;5858;43.076;25.626;2023-02-03T09:55:31;99703.84;;;5.62;68.76
11605;BME280;5858;43.076;25.626;2023-02-03T09:58:10;99722.66;;;5.88;68.90
11605;BME280;5858;43.076;25.626;2023-02-03T10:00:53;99863.59;;;7.09;69.63
11605;BME280;5858;43.076;25.626;2023-02-03T10:03:38;99716.44;;;6.53;67.02
11605;BME280;5858;43.076;25.626;2023-02-03T10:09:40;99787.06;;;7.20;65.21
11605;BME280;5858;43.076;25.626;2023-02-03T10:12:33;99887.69;;;7.62;64.31
11605;BME280;5858;43.076;25.626;2023-02-03T10:18:36;99726.56;;;6.95;62.96
11605;BME280;5858;43.076;25.626;2023-02-03T10:21:12;99860.69;;;7.57;64.44
11605;BME280;5858;43.076;25.626;2023-02-03T10:30:22;99707.13;;;6.94;64.29
11605;BME280;5858;43.076;25.626;2023-02-03T10:33:01;99794.69;;;7.33;62.98
11605;BME280;5858;43.076;25.626;2023-02-03T10:36:06;99738.25;;;6.57;67.33
11605;BME280;5858;43.076;25.626;2023-02-03T10:38:49;99843.09;;;7.64;67.14
11605;BME280;5858;43.076;25.626;2023-02-03T10:41:22;99679.91;;;6.55;66.87
11605;BME280;5858;43.076;25.626;2023-02-03T10:43:50;99736.91;;;6.98;65.89
11605;BME280;5858;43.076;25.626;2023-02-03T10:46:40;99690.91;;;6.70;66.48
11605;BME280;5858;43.076;25.626;2023-02-03T10:49:22;99844.34;;;7.42;67.17
11605;BME280;5858;43.076;25.626;2023-02-03T10:52:45;99836.63;;;7.67;65.97
11605;BME280;5858;43.076;25.626;2023-02-03T10:55:30;99691.06;;;6.69;65.70
11605;BME280;5858;43.076;25.626;2023-02-03T10:58:07;99714.19;;;6.86;66.08
11605;BME280;5858;43.076;25.626;2023-02-03T11:00:39;99826.63;;;7.51;65.28
11605;BME280;5858;43.076;25.626;2023-02-03T11:03:21;99830.50;;;7.56;65.45
11605;BME280;5858;43.076;25.626;2023-02-03T11:06:03;99670.97;;;6.56;65.21
11605;BME280;5858;43.076;25.626;2023-02-03T11:08:42;99832.56;;;7.45;65.81
11605;BME280;5858;43.076;25.626;2023-02-03T11:11:23;99818.38;;;7.72;65.26
11605;BME280;5858;43.076;25.626;2023-02-03T11:14:21;99639.41;;;6.71;64.31
11605;BME280;5858;43.076;25.626;2023-02-03T11:16:56;99775.13;;;7.42;63.56
11605;BME280;5858;43.076;25.626;2023-02-03T11:19:26;99748.91;;;7.12;64.22
11605;BME280;5858;43.076;25.626;2023-02-03T11:21:53;99814.53;;;7.39;65.24
11605;BME280;5858;43.076;25.626;2023-02-03T11:24:26;99736.44;;;6.85;65.17
11605;BME280;5858;43.076;25.626;2023-02-03T11:26:57;99623.97;;;6.29;66.06
11605;BME280;5858;43.076;25.626;2023-02-03T11:29:29;99774.94;;;7.08;65.79
11605;BME280;5858;43.076;25.626;2023-02-03T11:32:00;99786.28;;;7.10;67.02
11605;BME280;5858;43.076;25.626;2023-02-03T11:34:34;99686.59;;;6.59;65.32
11605;BME280;5858;43.076;25.626;2023-02-03T11:38:31;99817.34;;;7.37;64.13
11605;BME280;5858;43.076;25.626;2023-02-03T11:40:29;99802.22;;;7.55;64.34
11605;BME280;5858;43.076;25.626;2023-02-03T11:43:00;99760.75;;;7.35;62.06
11605;BME280;5858;43.076;25.626;2023-02-03T11:45:29;99730.03;;;7.23;62.93
11605;BME280;5858;43.076;25.626;2023-02-03T11:48:16;99746.31;;;7.38;61.51
11605;BME280;5858;43.076;25.626;2023-02-03T11:51:10;99776.97;;;7.77;61.77
11605;BME280;5858;43.076;25.626;2023-02-03T11:54:03;99727.00;;;7.36;59.01
11605;BME280;5858;43.076;25.626;2023-02-03T11:56:51;99723.13;;;7.30;59.71
11605;BME280;5858;43.076;25.626;2023-02-03T12:02:46;99605.25;;;7.02;60.63
11605;BME280;5858;43.076;25.626;2023-02-03T12:08:36;99767.28;;;8.20;57.04
11605;BME280;5858;43.076;25.626;2023-02-03T12:11:14;99761.63;;;8.23;56.24
11605;BME280;5858;43.076;25.626;2023-02-03T12:14:04;99599.38;;;7.34;56.00
11605;BME280;5858;43.076;25.626;2023-02-03T12:17:00;99729.84;;;8.30;55.89
11605;BME280;5858;43.076;25.626;2023-02-03T12:19:42;99703.31;;;7.94;56.82
11605;BME280;5858;43.076;25.626;2023-02-03T12:22:20;99785.25;;;8.18;57.93
11605;BME280;5858;43.076;25.626;2023-02-03T12:25:13;99622.16;;;7.11;58.98
11605;BME280;5858;43.076;25.626;2023-02-03T12:27:48;99776.81;;;7.79;61.24
11605;BME280;5858;43.076;25.626;2023-02-03T12:30:43;99762.22;;;7.65;63.31
11605;BME280;5858;43.076;25.626;2023-02-03T12:33:49;99701.97;;;7.29;63.72
11605;BME280;5858;43.076;25.626;2023-02-03T12:36:38;99604.19;;;6.59;64.60
11605;BME280;5858;43.076;25.626;2023-02-03T12:39:27;99763.50;;;7.43;65.66
11605;BME280;5858;43.076;25.626;2023-02-03T12:42:09;99593.63;;;6.32;68.29
11605;BME280;5858;43.076;25.626;2023-02-03T12:44:47;99725.94;;;7.11;69.56
11605;BME280;5858;43.076;25.626;2023-02-03T12:47:26;99703.16;;;6.99;70.21
11605;BME280;5858;43.076;25.626;2023-02-03T12:50:16;99726.28;;;6.98;71.51
11605;BME280;5858;43.076;25.626;2023-02-03T12:52:53;99724.66;;;6.87;69.05
11605;BME280;5858;43.076;25.626;2023-02-03T12:55:26;99760.06;;;7.15;70.25
11605;BME280;5858;43.076;25.626;2023-02-03T12:58:15;99664.09;;;6.81;69.59
11605;BME280;5858;43.076;25.626;2023-02-03T13:01:11;99598.84;;;6.24;68.10
11605;BME280;5858;43.076;25.626;2023-02-03T13:17:28;99735.53;;;6.94;67.54
11605;BME280;5858;43.076;25.626;2023-02-03T13:20:22;99597.09;;;6.05;66.69
11605;BME280;5858;43.076;25.626;2023-02-03T13:32:39;99658.25;;;6.50;66.57
11605;BME280;5858;43.076;25.626;2023-02-03T13:35:33;99650.06;;;6.44;66.04
11605;BME280;5858;43.076;25.626;2023-02-03T13:38:26;99584.66;;;6.06;65.81
11605;BME280;5858;43.076;25.626;2023-02-03T13:41:25;99640.84;;;6.38;65.31
11605;BME280;5858;43.076;25.626;2023-02-03T13:44:11;99747.56;;;6.98;64.74
11605;BME280;5858;43.076;25.626;2023-02-03T13:46:39;99697.22;;;6.42;63.09
11605;BME280;5858;43.076;25.626;2023-02-03T13:49:15;99736.75;;;6.82;63.49
11605;BME280;5858;43.076;25.626;2023-02-03T13:51:48;99688.19;;;6.52;62.91
11605;BME280;5858;43.076;25.626;2023-02-03T13:54:22;99615.94;;;6.12;61.52
11605;BME280;5858;43.076;25.626;2023-02-03T13:56:53;99757.88;;;6.83;61.34
11605;BME280;5858;43.076;25.626;2023-02-03T13:59:39;99670.69;;;6.32;61.08
11605;BME280;5858;43.076;25.626;2023-02-03T14:02:37;99727.19;;;6.61;62.22
11605;BME280;5858;43.076;25.626;2023-02-03T14:05:38;99725.84;;;6.48;62.26
11605;BME280;5858;43.076;25.626;2023-02-03T14:11:37;99725.91;;;6.38;63.88
11605;BME280;5858;43.076;25.626;2023-02-03T14:20:45;99614.72;;;5.69;65.04
11605;BME280;5858;43.076;25.626;2023-02-03T14:23:20;99729.28;;;6.30;66.59
11605;BME280;5858;43.076;25.626;2023-02-03T14:25:54;99736.28;;;6.31;65.86
11605;BME280;5858;43.076;25.626;2023-02-03T14:28:43;99702.75;;;6.21;66.55
11605;BME280;5858;43.076;25.626;2023-02-03T14:31:23;99582.97;;;5.30;66.31
11605;BME280;5858;43.076;25.626;2023-02-03T14:34:19;99667.03;;;5.96;66.31
11605;BME280;5858;43.076;25.626;2023-02-03T14:37:35;99562.47;;;5.23;65.53
11605;BME280;5858;43.076;25.626;2023-02-03T14:40:47;99632.31;;;5.60;65.73
11605;BME280;5858;43.076;25.626;2023-02-03T14:43:40;99763.44;;;6.25;65.76
11605;BME280;5858;43.076;25.626;2023-02-03T14:46:33;99651.59;;;5.72;65.49
11605;BME280;5858;43.076;25.626;2023-02-03T14:52:40;99690.94;;;5.86;64.81
11605;BME280;5858;43.076;25.626;2023-02-03T14:55:24;99677.31;;;5.72;65.18
11605;BME280;5858;43.076;25.626;2023-02-03T14:58:00;99740.50;;;6.24;65.50
11605;BME280;5858;43.076;25.626;2023-02-03T15:00:31;99738.00;;;6.23;65.60
11605;BME280;5858;43.076;25.626;2023-02-03T15:03:24;99591.50;;;5.24;65.81
11605;BME280;5858;43.076;25.626;2023-02-03T15:05:58;99645.03;;;5.57;65.62
11605;BME280;5858;43.076;25.626;2023-02-03T15:08:46;99756.44;;;6.15;65.54
11605;BME280;5858;43.076;25.626;2023-02-03T15:14:33;99636.84;;;5.41;65.31
11605;BME280;5858;43.076;25.626;2023-02-03T15:17:11;99707.47;;;5.61;64.75
11605;BME280;5858;43.076;25.626;2023-02-03T15:19:45;99665.63;;;5.35;64.35
11605;BME280;5858;43.076;25.626;2023-02-03T15:22:54;99633.09;;;4.85;63.61
11605;BME280;5858;43.076;25.626;2023-02-03T15:32:36;99762.13;;;5.34;62.66
11605;BME280;5858;43.076;25.626;2023-02-03T15:35:24;99752.19;;;5.27;63.42
11605;BME280;5858;43.076;25.626;2023-02-03T15:38:01;99607.59;;;4.15;62.93
11605;BME280;5858;43.076;25.626;2023-02-03T15:40:47;99573.78;;;3.88;64.10
11605;BME280;5858;43.076;25.626;2023-02-03T15:43:32;99758.84;;;5.02;64.54